Time;durP1;ratioP1;P1;durP2;ratioP2;P2;SDS_P1;SDS_P2;PMS_P1;PMS_P2;Temp;Humidity;BMP_temperature;BMP_pressure;BME280_temperature;BME280_humidity;BME280_pressure;Samples;Min_cycle;Max_cycle;Signal;HPM_P1;HPM_P2
2024/03/02 00:01:39;;;;;;;28.98;15.15;;;;;;;3.99;100.00;97329.44;6101225;19;20364;-71
2024/03/02 00:03:40;;;;;;;27.73;13.70;;;;;;;3.97;100.00;97325.47;6105777;19;20013;-71
2024/03/02 00:05:41;;;;;;;28.30;13.75;;;;;;;3.95;100.00;97332.09;6105459;19;20014;-71
2024/03/02 00:07:42;;;;;;;28.70;13.85;;;;;;;3.93;100.00;97328.94;6104412;19;20351;-71
2024/03/02 00:09:44;;;;;;;24.10;13.43;;;;;;;3.90;100.00;97328.88;6105016;19;20292;-71
2024/03/02 00:11:44;;;;;;;24.23;12.60;;;;;;;3.87;100.00;97319.41;6103565;19;20007;-71
2024/03/02 00:13:45;;;;;;;25.13;13.73;;;;;;;3.87;100.00;97316.69;6103828;19;20025;-71
2024/03/02 00:15:48;;;;;;;23.42;13.05;;;;;;;3.85;100.00;97316.25;6112076;19;20002;-71
2024/03/02 00:17:53;;;;;;;25.58;13.52;;;;;;;3.85;100.00;97324.47;6111780;19;20069;-71
2024/03/02 00:19:53;;;;;;;23.00;12.95;;;;;;;3.83;100.00;97321.31;6111909;19;20002;-71
2024/03/02 00:21:54;;;;;;;22.63;12.93;;;;;;;3.80;100.00;97313.81;6109654;19;20018;-71
2024/03/02 00:23:54;;;;;;;25.25;13.00;;;;;;;3.78;100.00;97320.81;6111365;19;20006;-71
2024/03/02 00:25:55;;;;;;;27.45;14.93;;;;;;;3.73;100.00;97316.44;6111205;19;20031;-71
2024/03/02 00:27:56;;;;;;;27.15;14.88;;;;;;;3.73;100.00;97326.59;6111468;19;20010;-71
2024/03/02 00:29:56;;;;;;;27.67;15.15;;;;;;;3.69;100.00;97312.03;6111330;19;20038;-71
2024/03/02 00:31:58;;;;;;;25.98;14.45;;;;;;;3.70;100.00;97324.56;6110389;19;20341;-71
2024/03/02 00:34:04;;;;;;;27.77;14.70;;;;;;;3.66;100.00;97321.75;6111400;19;20044;-71
2024/03/02 00:36:06;;;;;;;27.17;14.55;;;;;;;3.66;100.00;97317.09;6110801;19;20047;-72
2024/03/02 00:38:07;;;;;;;29.23;14.27;;;;;;;3.65;100.00;97317.44;6111233;19;20007;-72
2024/03/02 00:40:07;;;;;;;28.42;15.82;;;;;;;3.62;100.00;97315.41;6109544;19;20005;-72
2024/03/02 00:42:08;;;;;;;27.40;15.45;;;;;;;3.62;100.00;97310.72;6108982;19;20002;-72
2024/03/02 00:44:17;;;;;;;29.67;15.63;;;;;;;3.58;100.00;97311.84;6111363;19;20082;-71
2024/03/02 00:46:19;;;;;;;28.58;14.60;;;;;;;3.57;100.00;97315.72;6112228;19;20528;-71
2024/03/02 00:48:19;;;;;;;30.23;14.18;;;;;;;3.54;100.00;97319.94;6112246;19;20007;-71
2024/03/02 00:50:20;;;;;;;30.92;15.60;;;;;;;3.52;100.00;97319.53;6109651;19;20309;-71
2024/03/02 00:52:20;;;;;;;24.45;14.05;;;;;;;3.53;100.00;97309.38;6110563;19;20029;-71
2024/03/02 00:54:24;;;;;;;26.15;14.00;;;;;;;3.55;100.00;97312.53;6111936;19;20038;-71
2024/03/02 00:56:25;;;;;;;27.80;14.68;;;;;;;3.53;100.00;97314.84;6111424;19;20431;-71
2024/03/02 00:58:25;;;;;;;27.95;13.65;;;;;;;3.53;100.00;97329.31;6111676;19;20015;-71
2024/03/02 01:00:26;;;;;;;28.00;15.60;;;;;;;3.55;100.00;97320.75;6110997;19;20014;-71
2024/03/02 01:02:26;;;;;;;28.60;14.27;;;;;;;3.56;100.00;97312.19;6110685;19;20021;-71
2024/03/02 01:04:26;;;;;;;22.50;13.65;;;;;;;3.57;100.00;97313.78;6111211;19;20011;-71
2024/03/02 01:06:27;;;;;;;25.17;14.00;;;;;;;3.59;100.00;97327.09;6110410;19;20032;-71
2024/03/02 01:08:28;;;;;;;27.90;13.98;;;;;;;3.57;100.00;97324.72;6112076;19;20015;-71
2024/03/02 01:10:28;;;;;;;27.70;15.75;;;;;;;3.52;100.00;97316.78;6110016;19;20025;-71
2024/03/02 01:12:28;;;;;;;26.98;14.10;;;;;;;3.51;100.00;97323.41;6110104;19;20461;-71
2024/03/02 01:14:29;;;;;;;25.30;13.48;;;;;;;3.50;100.00;97324.56;6111219;19;20002;-71
2024/03/02 01:16:29;;;;;;;27.75;14.40;;;;;;;3.49;100.00;97333.94;6110722;19;20009;-71
2024/03/02 01:18:30;;;;;;;26.65;12.85;;;;;;;3.51;100.00;97326.16;6109575;19;20010;-71
2024/03/02 01:20:31;;;;;;;25.02;13.80;;;;;;;3.46;100.00;97320.16;6109593;19;20014;-71
2024/03/02 01:22:31;;;;;;;26.27;13.73;;;;;;;3.46;100.00;97323.69;6110541;19;20010;-71
2024/03/02 01:24:32;;;;;;;25.10;14.30;;;;;;;3.41;100.00;97321.25;6110760;19;20364;-71
2024/03/02 01:26:32;;;;;;;27.90;13.88;;;;;;;3.43;100.00;97324.41;6110820;19;20007;-71
2024/03/02 01:28:32;;;;;;;25.38;13.45;;;;;;;3.40;100.00;97327.88;6111127;19;20012;-71
2024/03/02 01:30:33;;;;;;;26.08;14.77;;;;;;;3.36;100.00;97325.06;6109466;19;20006;-71
2024/03/02 01:32:33;;;;;;;24.70;14.85;;;;;;;3.32;100.00;97331.63;6111218;19;20010;-71
2024/03/02 01:34:33;;;;;;;27.45;14.65;;;;;;;3.30;100.00;97331.94;6110120;19;19998;-71
2024/03/02 01:36:34;;;;;;;27.02;13.85;;;;;;;3.31;100.00;97339.03;6110961;19;20083;-71
2024/03/02 01:38:34;;;;;;;27.10;14.27;;;;;;;3.28;100.00;97333.47;6108055;19;20003;-71
2024/03/02 01:40:35;;;;;;;25.83;14.43;;;;;;;3.28;100.00;97337.00;6109580;19;20006;-71
2024/03/02 01:42:37;;;;;;;32.15;14.65;;;;;;;3.28;100.00;97330.72;6110405;19;20022;-71
2024/03/02 01:44:37;;;;;;;24.83;14.27;;;;;;;3.29;100.00;97340.50;6110875;19;20014;-71
2024/03/02 01:46:38;;;;;;;26.20;14.07;;;;;;;3.30;100.00;97342.88;6109964;19;20002;-71
2024/03/02 01:48:38;;;;;;;25.80;14.27;;;;;;;3.30;100.00;97337.41;6109730;19;20074;-71
2024/03/02 01:50:38;;;;;;;30.33;15.43;;;;;;;3.28;100.00;97331.53;6109566;19;20006;-71
2024/03/02 01:52:39;;;;;;;29.92;14.23;;;;;;;3.31;100.00;97340.94;6110062;19;20133;-71
2024/03/02 01:54:40;;;;;;;30.92;15.45;;;;;;;3.32;100.00;97340.59;6109899;19;20515;-71
2024/03/02 01:56:40;;;;;;;26.08;14.80;;;;;;;3.33;100.00;97344.91;6110571;19;20007;-71
2024/03/02 01:58:41;;;;;;;25.60;14.38;;;;;;;3.33;100.00;97339.44;6109157;19;20026;-71
2024/03/02 02:00:41;;;;;;;29.02;14.55;;;;;;;3.33;100.00;97333.97;6108753;19;20006;-71
2024/03/02 02:02:42;;;;;;;26.67;14.25;;;;;;;3.34;100.00;97332.81;6108671;19;20009;-71
2024/03/02 02:04:42;;;;;;;29.13;15.55;;;;;;;3.38;100.00;97339.16;6109580;19;20103;-71
2024/03/02 02:06:46;;;;;;;23.30;13.02;;;;;;;3.38;100.00;97339.16;6110047;19;20953;-71
2024/03/02 02:08:47;;;;;;;24.33;14.45;;;;;;;3.37;100.00;97331.31;6109512;19;19998;-71
2024/03/02 02:10:47;;;;;;;26.05;14.15;;;;;;;3.38;100.00;97336.41;6108908;19;20019;-71
2024/03/02 02:12:47;;;;;;;29.02;15.32;;;;;;;3.37;100.00;97337.56;6108725;19;20375;-71
2024/03/02 02:14:50;;;;;;;29.38;13.85;;;;;;;3.41;100.00;97339.59;6109014;19;20002;-71
2024/03/02 02:16:50;;;;;;;31.88;14.70;;;;;;;3.44;100.00;97336.16;6109171;19;20010;-71
2024/03/02 02:18:50;;;;;;;25.33;14.23;;;;;;;3.44;100.00;97336.16;6109195;19;20005;-71
2024/03/02 02:20:51;;;;;;;28.92;14.85;;;;;;;3.45;100.00;97335.78;6107652;19;20454;-71
2024/03/02 02:23:02;;;;;;;25.98;14.20;;;;;;;3.45;100.00;97335.00;6109139;19;19998;-71
2024/03/02 02:25:03;;;;;;;28.88;14.95;;;;;;;3.44;100.00;97334.19;6109568;19;20017;-71
2024/03/02 02:27:04;;;;;;;27.30;14.27;;;;;;;3.41;100.00;97328.66;6107716;19;20022;-71
2024/03/02 02:29:04;;;;;;;28.02;13.90;;;;;;;3.40;100.00;97333.34;6109327;19;20098;-71
2024/03/02 02:31:05;;;;;;;25.88;13.18;;;;;;;3.41;100.00;97329.47;6106619;19;20796;-71
2024/03/02 02:33:05;;;;;;;28.13;13.60;;;;;;;3.43;100.00;97329.88;6108851;19;20495;-71
2024/03/02 02:35:06;;;;;;;24.83;13.50;;;;;;;3.47;100.00;97327.22;6108966;19;19999;-71
2024/03/02 02:37:06;;;;;;;26.40;13.82;;;;;;;3.49;100.00;97327.66;6109200;19;20022;-71
2024/03/02 02:39:10;;;;;;;22.00;13.23;;;;;;;3.48;100.00;97332.34;6108102;19;20003;-71
2024/03/02 02:41:11;;;;;;;29.15;14.65;;;;;;;3.47;100.00;97329.94;6107238;19;20007;-71
2024/03/02 02:43:12;;;;;;;29.27;14.30;;;;;;;3.46;100.00;97317.44;6108809;19;20358;-71
2024/03/02 02:45:14;;;;;;;26.25;14.32;;;;;;;3.52;100.00;97313.25;6108435;19;20074;-71
2024/03/02 02:47:14;;;;;;;27.88;14.00;;;;;;;3.53;100.00;97318.38;6108219;19;20471;-71
2024/03/02 02:49:14;;;;;;;26.90;14.07;;;;;;;3.52;100.00;97318.72;6108933;19;20364;-71
2024/03/02 02:51:16;;;;;;;23.23;13.82;;;;;;;3.53;100.00;97323.84;6103716;19;20066;-71
2024/03/02 02:53:17;;;;;;;25.45;14.20;;;;;;;3.50;100.00;97326.50;6107987;19;20003;-71
2024/03/02 02:55:17;;;;;;;32.22;15.43;;;;;;;3.54;100.00;97319.94;6107363;19;20024;-71
2024/03/02 02:57:17;;;;;;;28.13;15.05;;;;;;;3.50;100.00;97318.31;6108704;19;20013;-71
2024/03/02 02:59:18;;;;;;;27.25;14.00;;;;;;;3.48;100.00;97309.69;6107787;19;20036;-71
2024/03/02 03:01:19;;;;;;;29.15;14.93;;;;;;;3.46;100.00;97310.00;6104366;19;20046;-71
2024/03/02 03:03:19;;;;;;;31.08;14.88;;;;;;;3.44;100.00;97317.78;6108583;19;20338;-71
2024/03/02 03:05:19;;;;;;;28.88;15.43;;;;;;;3.45;100.00;97313.91;6108369;19;20023;-71
2024/03/02 03:07:20;;;;;;;25.00;14.05;;;;;;;3.44;100.00;97317.00;6107866;19;20014;-71
2024/03/02 03:09:20;;;;;;;28.77;14.68;;;;;;;3.44;100.00;97315.06;6108047;19;20123;-71
2024/03/02 03:11:22;;;;;;;27.95;14.65;;;;;;;3.45;100.00;97311.16;6107232;19;20011;-71
2024/03/02 03:13:22;;;;;;;30.83;15.35;;;;;;;3.42;100.00;97311.91;6107539;19;20011;-71
2024/03/02 03:15:23;;;;;;;29.10;14.93;;;;;;;3.44;100.00;97314.28;6097809;19;20006;-71
2024/03/02 03:17:24;;;;;;;27.40;14.85;;;;;;;3.42;100.00;97306.44;6106961;19;20007;-71
2024/03/02 03:19:24;;;;;;;34.58;15.07;;;;;;;3.40;100.00;97310.69;6107217;19;20007;-71
2024/03/02 03:21:24;;;;;;;25.90;14.05;;;;;;;3.42;100.00;97308.38;6105878;19;20621;-71
2024/03/02 03:23:25;;;;;;;26.40;13.43;;;;;;;3.39;100.00;97312.59;6107046;19;20007;-71
2024/03/02 03:25:26;;;;;;;27.33;14.38;;;;;;;3.40;100.00;97307.94;6107529;19;20103;-70
2024/03/02 03:27:26;;;;;;;29.02;14.65;;;;;;;3.38;100.00;97308.28;6107700;19;20021;-70
2024/03/02 03:29:26;;;;;;;28.10;15.88;;;;;;;3.35;100.00;97298.06;6106434;19;20082;-71
2024/03/02 03:31:27;;;;;;;27.58;14.55;;;;;;;3.34;100.00;97301.97;6105992;19;20026;-71
2024/03/02 03:33:27;;;;;;;26.25;14.82;;;;;;;3.33;100.00;97297.66;6106501;19;20690;-71
2024/03/02 03:35:27;;;;;;;28.60;14.80;;;;;;;3.33;100.00;97294.91;6105803;19;20030;-71
2024/03/02 03:37:32;;;;;;;29.15;15.38;;;;;;;3.35;100.00;97300.81;6107036;19;20018;-71
2024/03/02 03:39:35;;;;;;;32.75;16.08;;;;;;;3.37;100.00;97301.25;6107655;19;20010;-71
2024/03/02 03:41:35;;;;;;;29.25;14.45;;;;;;;3.38;100.00;97305.56;6105000;19;20371;-71
2024/03/02 03:43:36;;;;;;;31.33;16.05;;;;;;;3.38;100.00;97302.81;6107444;19;20003;-71
2024/03/02 03:45:36;;;;;;;28.30;14.48;;;;;;;3.34;100.00;97300.03;6106459;19;20007;-71
2024/03/02 03:47:36;;;;;;;28.60;15.15;;;;;;;3.34;100.00;97301.97;6107352;19;20133;-71
2024/03/02 03:49:37;;;;;;;28.90;14.80;;;;;;;3.30;100.00;97301.09;6106551;19;20342;-71
2024/03/02 03:51:37;;;;;;;31.67;14.90;;;;;;;3.25;100.00;97301.38;6105231;19;20003;-71
2024/03/02 03:53:37;;;;;;;26.77;14.13;;;;;;;3.20;100.00;97302.44;6106798;19;20350;-71
2024/03/02 03:55:38;;;;;;;26.63;13.85;;;;;;;3.18;100.00;97306.69;6106893;19;20309;-71
2024/03/02 03:57:38;;;;;;;28.08;14.20;;;;;;;3.15;100.00;97299.22;6105712;19;20320;-71
2024/03/02 03:59:38;;;;;;;29.10;14.23;;;;;;;3.14;100.00;97303.06;6106854;19;20366;-71
2024/03/02 04:01:39;;;;;;;28.27;13.57;;;;;;;3.13;100.00;97305.03;6104820;19;20016;-71
2024/03/02 04:03:39;;;;;;;30.35;13.85;;;;;;;3.14;100.00;97300.34;6111686;19;19998;-71
2024/03/02 04:05:39;;;;;;;29.98;13.57;;;;;;;3.12;100.00;97299.91;6112600;19;20723;-71
2024/03/02 04:07:40;;;;;;;26.52;12.80;;;;;;;3.10;100.00;97300.28;6113494;19;20459;-71
2024/03/02 04:09:40;;;;;;;30.33;14.30;;;;;;;3.05;100.00;97300.56;6111465;19;20026;-71
2024/03/02 04:11:41;;;;;;;28.33;13.60;;;;;;;3.01;100.00;97300.50;6111279;19;20007;-71
2024/03/02 04:13:41;;;;;;;27.20;13.30;;;;;;;2.99;100.00;97293.81;6110965;19;20006;-71
2024/03/02 04:15:41;;;;;;;30.27;14.68;;;;;;;2.97;100.00;97293.34;6105225;19;20003;-71
2024/03/02 04:17:42;;;;;;;28.38;13.48;;;;;;;2.93;100.00;97290.56;6104984;19;20026;-71
2024/03/02 04:19:42;;;;;;;29.25;12.50;;;;;;;2.92;100.00;97288.97;6105389;19;20067;-71
2024/03/02 04:21:42;;;;;;;26.40;13.32;;;;;;;2.92;100.00;97285.44;6103242;19;20003;-71
2024/03/02 04:23:43;;;;;;;25.48;13.30;;;;;;;2.92;100.00;97282.72;6105675;19;20101;-71
2024/03/02 04:25:43;;;;;;;22.58;13.05;;;;;;;2.91;100.00;97283.88;6104914;19;20455;-71
2024/03/02 04:27:44;;;;;;;26.92;14.40;;;;;;;2.86;100.00;97284.91;6104150;19;20256;-71
2024/03/02 04:29:44;;;;;;;23.15;12.52;;;;;;;2.86;100.00;97284.91;6104851;19;20336;-71
2024/03/02 04:31:44;;;;;;;24.08;12.85;;;;;;;2.85;100.00;97285.28;6103916;19;20005;-71
2024/03/02 04:33:45;;;;;;;24.48;12.65;;;;;;;2.84;100.00;97287.22;6104896;19;19998;-71
2024/03/02 04:35:46;;;;;;;22.20;12.70;;;;;;;2.83;100.00;97287.59;6105134;19;20326;-71
2024/03/02 04:37:46;;;;;;;26.85;12.27;;;;;;;2.82;100.00;97281.34;6104298;19;20003;-71
2024/03/02 04:39:46;;;;;;;24.77;13.07;;;;;;;2.83;100.00;97287.59;6104708;19;20332;-71
2024/03/02 04:41:47;;;;;;;25.60;13.77;;;;;;;2.79;100.00;97282.03;6102807;19;20339;-71
2024/03/02 04:43:48;;;;;;;25.40;13.43;;;;;;;2.76;100.00;97290.94;6102655;19;20479;-71
2024/03/02 04:45:48;;;;;;;31.23;14.60;;;;;;;2.72;100.00;97296.31;6104223;19;20003;-71
2024/03/02 04:47:48;;;;;;;26.27;13.15;;;;;;;2.71;100.00;97289.25;6103105;19;20360;-71
2024/03/02 04:49:49;;;;;;;27.83;14.38;;;;;;;2.72;100.00;97300.97;6103870;19;20336;-71
2024/03/02 04:51:49;;;;;;;27.55;15.15;;;;;;;2.69;100.00;97307.94;6103100;19;20328;-71
2024/03/02 04:53:49;;;;;;;29.63;14.70;;;;;;;2.66;100.00;97297.75;6104211;19;20010;-71
2024/03/02 04:57:56;;;;;;;25.15;13.30;;;;;;;2.68;100.00;97306.38;6102676;19;20011;-71
2024/03/02 04:59:56;;;;;;;28.23;14.10;;;;;;;2.69;100.00;97307.94;6104038;19;20034;-71
2024/03/02 05:01:56;;;;;;;24.50;14.13;;;;;;;2.71;100.00;97300.19;6103102;19;20023;-71
2024/03/02 05:03:58;;;;;;;26.55;13.80;;;;;;;2.74;100.00;97309.63;6104094;19;20676;-71
2024/03/02 05:05:58;;;;;;;23.60;13.63;;;;;;;2.74;100.00;97299.50;6103699;19;20009;-71
2024/03/02 05:07:58;;;;;;;24.60;12.95;;;;;;;2.72;100.00;97307.22;6103527;19;20017;-71
2024/03/02 05:09:59;;;;;;;24.27;13.05;;;;;;;2.73;100.00;97317.03;6103182;19;20010;-71
2024/03/02 05:12:29;;;;;;;30.73;13.15;;;;;;;2.74;100.00;97317.81;6099093;19;20329;-71
2024/03/02 05:14:29;;;;;;;25.27;12.57;;;;;;;2.75;100.00;97316.69;5995689;19;2006920;-71
2024/03/02 05:16:34;;;;;;;24.85;12.98;;;;;;;2.76;100.00;97310.06;6105896;19;20590;-71
2024/03/02 05:18:34;;;;;;;26.45;13.60;;;;;;;2.76;100.00;97312.78;6104519;19;20963;-71
2024/03/02 05:20:34;;;;;;;29.20;14.18;;;;;;;2.76;100.00;97305.38;6108568;19;20017;-71
2024/03/02 05:22:36;;;;;;;25.00;14.27;;;;;;;2.76;100.00;97316.31;6108208;19;20010;-71
2024/03/02 05:24:36;;;;;;;27.00;14.35;;;;;;;2.76;100.00;97313.59;6109928;19;20031;-71
2024/03/02 05:26:37;;;;;;;28.45;14.55;;;;;;;2.78;100.00;97311.28;6109968;19;20007;-71
2024/03/02 05:28:37;;;;;;;27.05;14.35;;;;;;;2.78;100.00;97314.00;6109390;19;20011;-70
2024/03/02 05:30:37;;;;;;;33.65;15.85;;;;;;;2.87;100.00;97323.97;6108297;19;20010;-70
2024/03/02 05:32:38;;;;;;;30.40;15.00;;;;;;;2.88;100.00;97322.81;6108906;19;20003;-70
2024/03/02 05:34:38;;;;;;;36.25;15.65;;;;;;;2.84;100.00;97317.28;6107353;19;20025;-70
2024/03/02 05:36:38;;;;;;;29.38;15.63;;;;;;;2.87;100.00;97326.69;6109659;19;20039;-70
2024/03/02 05:38:39;;;;;;;33.15;16.55;;;;;;;2.87;100.00;97321.22;6109401;19;20081;-70
2024/03/02 05:40:39;;;;;;;32.97;17.63;;;;;;;2.86;100.00;97320.44;6107185;19;20011;-71
2024/03/02 05:42:41;;;;;;;36.33;17.58;;;;;;;2.86;100.00;97320.44;6107946;19;20002;-71
2024/03/02 05:44:41;;;;;;;34.83;18.50;;;;;;;2.89;100.00;97316.97;6109827;19;20351;-71
2024/03/02 05:46:42;;;;;;;30.98;17.08;;;;;;;2.87;100.00;97323.97;6109789;19;20031;-71
2024/03/02 05:48:42;;;;;;;36.78;16.55;;;;;;;2.84;100.00;97317.28;6109771;19;20011;-71
2024/03/02 05:50:43;;;;;;;40.00;18.38;;;;;;;2.84;100.00;97324.69;6107874;19;20013;-71
2024/03/02 05:52:43;;;;;;;54.22;22.90;;;;;;;2.79;100.00;97318.31;6110013;19;20024;-71
2024/03/02 05:54:43;;;;;;;39.03;22.55;;;;;;;2.80;100.00;97322.63;6108821;19;20014;-71
2024/03/02 05:56:44;;;;;;;44.70;22.33;;;;;;;2.78;100.00;97330.41;6109663;19;20046;-71
2024/03/02 06:01:04;;;;;;;41.05;20.20;;;;;;;2.76;100.00;97324.50;6107769;19;20026;-71
2024/03/02 06:03:06;;;;;;;40.13;20.50;;;;;;;2.77;100.00;97330.75;6109484;19;20009;-71
2024/03/02 06:05:07;;;;;;;38.17;22.33;;;;;;;2.75;100.00;97325.66;6108755;19;20102;-71
2024/03/02 06:07:07;;;;;;;40.13;22.23;;;;;;;2.77;100.00;97330.75;6110063;19;20002;-71
2024/03/02 06:09:08;;;;;;;43.53;21.52;;;;;;;2.74;100.00;97326.03;6108402;19;20009;-71
2024/03/02 06:11:08;;;;;;;43.45;22.02;;;;;;;2.74;100.00;97321.34;6108035;19;20007;-70
2024/03/02 06:13:08;;;;;;;36.63;19.35;;;;;;;2.74;100.00;97326.03;6109323;19;20003;-70
2024/03/02 06:15:09;;;;;;;36.03;19.40;;;;;;;2.74;100.00;97331.47;6108726;19;20033;-70
2024/03/02 06:17:10;;;;;;;38.08;20.77;;;;;;;2.71;100.00;97322.03;6108763;19;20070;-71
2024/03/02 06:19:10;;;;;;;36.90;19.88;;;;;;;2.73;100.00;97329.88;6109794;19;20359;-71
2024/03/02 06:21:10;;;;;;;37.40;21.23;;;;;;;2.71;100.00;97332.97;6107366;19;20007;-71
2024/03/02 06:23:11;;;;;;;42.63;21.38;;;;;;;2.70;100.00;97330.59;6108280;19;20010;-70
2024/03/02 06:25:11;;;;;;;42.92;21.27;;;;;;;2.70;100.00;97327.88;6108380;19;20059;-70
2024/03/02 06:27:11;;;;;;;39.15;20.65;;;;;;;2.68;100.00;97328.22;6108412;19;19999;-71
2024/03/02 06:29:12;;;;;;;38.03;19.50;;;;;;;2.70;100.00;97336.84;6108855;19;20014;-71
2024/03/02 06:31:12;;;;;;;38.42;18.88;;;;;;;2.76;100.00;97349.09;6106534;19;20447;-71
2024/03/02 06:33:13;;;;;;;34.80;17.45;;;;;;;2.75;100.00;97344.78;6108520;19;20066;-71
2024/03/02 06:35:13;;;;;;;35.85;19.55;;;;;;;2.78;100.00;97346.78;6107074;19;20019;-71
2024/03/02 06:37:15;;;;;;;42.03;19.25;;;;;;;2.79;100.00;97348.38;6108295;19;20268;-71
2024/03/02 06:39:16;;;;;;;34.85;20.13;;;;;;;2.81;100.00;97348.84;6107731;19;20846;-71
2024/03/02 06:41:16;;;;;;;37.47;18.65;;;;;;;2.84;100.00;97352.78;6106132;19;20007;-71
2024/03/02 06:43:16;;;;;;;37.45;17.73;;;;;;;2.86;100.00;97355.94;6107602;19;20608;-71
2024/03/02 06:45:17;;;;;;;37.17;18.83;;;;;;;2.88;100.00;97344.66;6108262;19;20019;-71
2024/03/02 06:47:17;;;;;;;37.85;18.13;;;;;;;2.97;100.00;97356.19;6108041;19;19999;-71
2024/03/02 06:49:18;;;;;;;37.53;20.30;;;;;;;3.04;100.00;97353.63;6108807;19;19998;-71
2024/03/02 06:51:18;;;;;;;37.15;19.27;;;;;;;3.12;100.00;97360.84;6106609;19;20009;-71
2024/03/02 06:53:19;;;;;;;39.60;19.70;;;;;;;3.18;100.00;97362.16;6107571;19;20386;-71
2024/03/02 06:55:19;;;;;;;41.05;19.70;;;;;;;3.28;100.00;97367.06;6107275;19;20003;-71
2024/03/02 06:57:20;;;;;;;44.50;19.23;;;;;;;3.31;100.00;97360.06;6108357;19;20400;-71
2024/03/02 06:59:21;;;;;;;34.97;17.23;;;;;;;3.34;100.00;97365.63;6107810;19;19999;-71
2024/03/02 07:01:21;;;;;;;31.92;16.25;;;;;;;3.34;100.00;97359.38;6107130;19;20006;-71
2024/03/02 07:03:21;;;;;;;40.90;17.73;;;;;;;3.36;100.00;97373.47;6107750;19;20443;-71
2024/03/02 07:05:22;;;;;;;37.22;19.10;;;;;;;3.41;100.00;97378.69;6107280;19;20011;-71
2024/03/02 07:07:22;;;;;;;34.65;17.83;;;;;;;3.43;100.00;97373.63;6107364;19;20078;-71
2024/03/02 07:09:22;;;;;;;36.45;18.17;;;;;;;3.52;100.00;97367.97;6107898;19;20020;-71
2024/03/02 07:11:23;;;;;;;30.55;17.80;;;;;;;3.54;100.00;97377.38;6105738;19;20011;-70
2024/03/02 07:13:23;;;;;;;31.63;16.02;;;;;;;3.56;100.00;97375.09;6108450;19;20035;-71
2024/03/02 07:17:26;;;;;;;36.78;16.83;;;;;;;3.63;100.00;97379.91;6103423;19;20011;-71
2024/03/02 07:19:27;;;;;;;34.08;16.17;;;;;;;3.65;100.00;97383.09;6106530;19;20330;-71
2024/03/02 07:21:27;;;;;;;32.60;17.20;;;;;;;3.64;100.00;97384.22;6107428;19;19999;-71
2024/03/02 07:23:28;;;;;;;30.17;16.80;;;;;;;3.67;100.00;97387.06;6106929;19;20530;-71
2024/03/02 07:25:28;;;;;;;28.88;15.00;;;;;;;3.73;100.00;97392.25;6107558;19;20006;-71
2024/03/02 07:27:32;;;;;;;32.83;15.65;;;;;;;3.77;100.00;97396.63;6107133;19;20010;-70
2024/03/02 07:29:32;;;;;;;31.38;15.38;;;;;;;3.86;100.00;97402.66;6108074;19;20535;-70
2024/03/02 07:31:32;;;;;;;31.10;14.80;;;;;;;3.94;100.00;97400.88;6104629;19;20014;-70
2024/03/02 07:33:33;;;;;;;32.67;14.20;;;;;;;4.00;100.00;97398.66;6107497;19;20423;-70
2024/03/02 07:35:33;;;;;;;28.98;15.38;;;;;;;4.07;100.00;97405.06;6107152;19;20014;-70
2024/03/02 07:37:34;;;;;;;29.38;13.90;;;;;;;4.19;100.00;97409.56;6109322;19;20460;-70
2024/03/02 07:39:34;;;;;;;28.35;13.82;;;;;;;4.29;100.00;97394.50;6112403;19;20070;-71
2024/03/02 07:41:34;;;;;;;26.02;12.75;;;;;;;4.40;100.00;97399.03;6108696;19;20495;-71
2024/03/02 07:43:35;;;;;;;26.92;13.20;;;;;;;4.51;100.00;97408.22;6110775;19;20010;-71
2024/03/02 07:45:36;;;;;;;24.90;12.35;;;;;;;4.61;100.00;97406.03;6104828;19;20021;-70
2024/03/02 07:47:36;;;;;;;24.15;13.80;;;;;;;4.68;100.00;97411.66;6103863;19;20615;-70
2024/03/02 07:49:37;;;;;;;23.27;12.93;;;;;;;4.77;100.00;97402.03;6108382;19;20006;-71
2024/03/02 07:51:37;;;;;;;25.38;12.75;;;;;;;4.86;100.00;97412.72;6106270;19;20030;-71
2024/03/02 07:53:38;;;;;;;28.33;14.38;;;;;;;4.97;100.00;97408.25;6102255;19;20128;-71
2024/03/02 07:55:39;;;;;;;24.08;13.85;;;;;;;5.10;100.00;97405.28;6108670;19;20345;-71
2024/03/02 07:57:40;;;;;;;28.00;12.82;;;;;;;5.25;100.00;97410.63;6103602;19;20011;-71
2024/03/02 07:59:40;;;;;;;30.05;13.68;;;;;;;5.43;100.00;97416.38;6107437;19;20030;-71
2024/03/02 08:01:41;;;;;;;24.73;12.57;;;;;;;5.62;100.00;97416.25;6108822;19;20447;-71
2024/03/02 08:03:42;;;;;;;25.23;12.82;;;;;;;5.82;100.00;97405.94;6107421;19;20466;-71
2024/03/02 08:05:44;;;;;;;26.80;13.07;;;;;;;5.98;100.00;97413.22;6103983;19;20585;-71
2024/03/02 08:07:45;;;;;;;20.10;11.30;;;;;;;6.10;100.00;97404.72;6104601;19;20003;-71
2024/03/02 08:09:46;;;;;;;24.10;12.52;;;;;;;6.15;100.00;97410.69;6105555;19;20439;-71
2024/03/02 08:11:46;;;;;;;20.02;11.43;;;;;;;6.23;100.00;97413.53;6103587;19;20003;-71
2024/03/02 08:13:47;;;;;;;22.02;12.13;;;;;;;6.28;100.00;97408.47;6099414;19;20010;-71
2024/03/02 08:15:47;;;;;;;18.83;10.48;;;;;;;6.39;100.00;97411.34;6110234;19;20007;-71
2024/03/02 08:17:50;;;;;;;21.63;11.63;;;;;;;6.51;100.00;97410.28;6111373;19;20005;-71
2024/03/02 08:19:50;;;;;;;20.17;11.20;;;;;;;6.64;100.00;97411.59;6112430;19;20006;-71
2024/03/02 08:21:51;;;;;;;17.52;10.45;;;;;;;6.75;100.00;97407.78;6109695;19;20486;-71
2024/03/02 08:23:52;;;;;;;18.50;10.63;;;;;;;6.87;100.00;97406.72;6112437;19;20403;-71
2024/03/02 08:25:52;;;;;;;19.55;10.18;;;;;;;6.96;100.00;97403.66;6111770;19;20355;-71
2024/03/02 08:27:52;;;;;;;16.83;9.43;;;;;;;7.04;100.00;97408.03;6111876;19;20530;-71
2024/03/02 08:29:53;;;;;;;18.27;10.20;;;;;;;7.14;100.00;97406.53;6111421;19;20301;-71
2024/03/02 08:31:54;;;;;;;16.67;9.30;;;;;;;7.24;100.00;97405.81;6106979;19;20013;-71
2024/03/02 08:33:54;;;;;;;14.98;9.68;;;;;;;7.28;100.00;97410.19;6110387;19;20367;-71
2024/03/02 08:35:55;;;;;;;17.15;10.70;;;;;;;7.35;100.00;97411.41;6110385;19;20007;-71
2024/03/02 08:37:55;;;;;;;16.95;9.35;;;;;;;7.35;100.00;97409.44;6111995;19;20003;-71
2024/03/02 08:39:56;;;;;;;15.65;8.95;;;;;;;7.42;100.00;97406.72;6110281;19;20022;-71
2024/03/02 08:41:56;;;;;;;14.95;8.55;;;;;;;7.48;100.00;97404.41;6109354;19;20462;-71
2024/03/02 08:43:57;;;;;;;13.20;8.10;;;;;;;7.49;100.00;97400.50;6111601;19;20014;-71
2024/03/02 08:45:57;;;;;;;15.45;8.50;;;;;;;7.51;100.00;97401.69;6110874;19;20010;-71
2024/03/02 08:47:57;;;;;;;13.45;8.63;;;;;;;7.53;100.00;97404.03;6108918;19;20002;-71
2024/03/02 08:49:58;;;;;;;17.63;8.68;;;;;;;7.55;100.00;97409.97;6107385;19;20006;-71
2024/03/02 08:51:58;;;;;;;14.52;8.73;;;;;;;7.58;100.00;97409.19;6108503;19;20003;-71
2024/03/02 08:53:59;;;;;;;14.05;8.48;;;;;;;7.63;100.00;97419.06;6110410;19;20017;-71
2024/03/02 08:55:59;;;;;;;14.05;7.85;;;;;;;7.65;100.00;97406.50;6110906;19;20020;-71
2024/03/02 08:58:00;;;;;;;13.38;7.85;;;;;;;7.72;100.00;97408.50;6111099;19;20347;-71
2024/03/02 09:00:00;;;;;;;12.02;7.38;;;;;;;7.74;100.00;97411.66;6110124;19;20006;-71
2024/03/02 09:02:01;;;;;;;13.65;7.97;;;;;;;7.79;100.00;97411.28;6108152;19;20486;-71
2024/03/02 09:04:01;;;;;;;17.70;8.80;;;;;;;7.86;100.00;97397.53;6110556;19;20022;-71
2024/03/02 09:06:02;;;;;;;12.88;7.93;;;;;;;7.91;100.00;97405.44;6110065;19;19995;-71
2024/03/02 09:08:03;;;;;;;14.48;8.75;;;;;;;7.91;100.00;97413.69;6110398;19;20010;-71
2024/03/02 09:10:05;;;;;;;14.32;8.82;;;;;;;7.93;100.00;97411.34;6109051;19;20094;-71
2024/03/02 09:12:07;;;;;;;16.58;9.07;;;;;;;7.87;100.00;97410.94;6111327;19;20094;-71
2024/03/02 09:14:07;;;;;;;17.45;9.82;;;;;;;7.88;100.00;97408.97;6106999;19;20010;-71
2024/03/02 09:16:10;;;;;;;19.05;9.60;;;;;;;7.86;100.00;97414.88;6102546;19;20058;-71
2024/03/02 09:18:11;;;;;;;16.75;9.32;;;;;;;7.88;100.00;97414.47;6101611;19;20007;-70
2024/03/02 09:20:11;;;;;;;18.27;9.43;;;;;;;7.89;100.00;97416.84;6102272;19;20035;-71
2024/03/02 09:22:12;;;;;;;18.15;9.43;;;;;;;7.92;100.00;97412.53;6101351;19;20074;-71